sensor_id;sensor_type;location;lat;lon;timestamp;temperature;humidity
18880;DHT22;9572;52.378;13.404;2023-10-08T00:01:19;12.00;99.90
18880;DHT22;9572;52.378;13.404;2023-10-08T00:03:58;12.00;99.90
18880;DHT22;9572;52.378;13.404;2023-10-08T00:06:27;12.00;99.90
18880;DHT22;9572;52.378;13.404;2023-10-08T00:08:57;12.10;99.90
18880;DHT22;9572;52.378;13.404;2023-10-08T00:11:26;12.10;99.90
18880;DHT22;9572;52.378;13.404;2023-10-08T00:13:56;12.10;99.90
18880;DHT22;9572;52.378;13.404;2023-10-08T00:16:23;12.10;99.90
18880;DHT22;9572;52.378;13.404;2023-10-08T00:18:51;12.10;99.90
18880;DHT22;9572;52.378;13.404;2023-10-08T00:21:21;12.10;99.90
18880;DHT22;9572;52.378;13.404;2023-10-08T00:23:52;12.10;99.90
18880;DHT22;9572;52.378;13.404;2023-10-08T00:26:24;12.10;99.90
18880;DHT22;9572;52.378;13.404;2023-10-08T00:28:57;12.10;99.90
18880;DHT22;9572;52.378;13.404;2023-10-08T00:31:33;12.20;99.90
18880;DHT22;9572;52.378;13.404;2023-10-08T00:34:11;12.20;99.90
18880;DHT22;9572;52.378;13.404;2023-10-08T00:37:06;12.20;99.90
18880;DHT22;9572;52.378;13.404;2023-10-08T00:39:49;12.20;99.90
18880;DHT22;9572;52.378;13.404;2023-10-08T00:42:28;12.10;99.90
18880;DHT22;9572;52.378;13.404;2023-10-08T00:48:47;12.10;99.90
18880;DHT22;9572;52.378;13.404;2023-10-08T00:51:14;12.20;99.90
18880;DHT22;9572;52.378;13.404;2023-10-08T00:53:55;12.20;99.90
18880;DHT22;9572;52.378;13.404;2023-10-08T00:56:27;12.10;99.90
18880;DHT22;9572;52.378;13.404;2023-10-08T00:59:12;12.10;99.90
18880;DHT22;9572;52.378;13.404;2023-10-08T01:01:42;12.10;99.90
18880;DHT22;9572;52.378;13.404;2023-10-08T01:04:16;12.10;99.90
18880;DHT22;9572;52.378;13.404;2023-10-08T01:06:45;12.10;99.90
18880;DHT22;9572;52.378;13.404;2023-10-08T01:09:17;12.00;99.90
18880;DHT22;9572;52.378;13.404;2023-10-08T01:12:07;12.00;99.90
18880;DHT22;9572;52.378;13.404;2023-10-08T01:14:34;12.00;99.90
18880;DHT22;9572;52.378;13.404;2023-10-08T01:17:02;12.10;99.90
18880;DHT22;9572;52.378;13.404;2023-10-08T01:19:33;12.10;99.90
18880;DHT22;9572;52.378;13.404;2023-10-08T01:22:18;12.10;99.90
18880;DHT22;9572;52.378;13.404;2023-10-08T01:24:47;12.10;99.90
18880;DHT22;9572;52.378;13.404;2023-10-08T01:27:14;12.00;99.90
18880;DHT22;9572;52.378;13.404;2023-10-08T01:29:47;12.00;99.90
18880;DHT22;9572;52.378;13.404;2023-10-08T01:32:17;12.00;99.90
18880;DHT22;9572;52.378;13.404;2023-10-08T01:35:09;12.00;99.90
18880;DHT22;9572;52.378;13.404;2023-10-08T01:37:50;12.00;99.90
18880;DHT22;9572;52.378;13.404;2023-10-08T01:40:49;11.90;99.90
18880;DHT22;9572;52.378;13.404;2023-10-08T01:43:30;11.90;99.90
18880;DHT22;9572;52.378;13.404;2023-10-08T01:46:39;11.90;99.90
18880;DHT22;9572;52.378;13.404;2023-10-08T01:49:30;11.90;99.90
18880;DHT22;9572;52.378;13.404;2023-10-08T01:59:48;11.90;99.90
18880;DHT22;9572;52.378;13.404;2023-10-08T02:05:38;11.90;99.90
18880;DHT22;9572;52.378;13.404;2023-10-08T02:08:49;12.00;99.90
18880;DHT22;9572;52.378;13.404;2023-10-08T02:11:30;11.90;99.90
18880;DHT22;9572;52.378;13.404;2023-10-08T02:15:02;11.90;99.90
18880;DHT22;9572;52.378;13.404;2023-10-08T02:31:10;11.90;99.90
18880;DHT22;9572;52.378;13.404;2023-10-08T02:33:58;12.00;99.90
18880;DHT22;9572;52.378;13.404;2023-10-08T02:36:34;11.90;99.90
18880;DHT22;9572;52.378;13.404;2023-10-08T02:39:24;11.90;99.90
18880;DHT22;9572;52.378;13.404;2023-10-08T02:41:57;11.80;99.90
18880;DHT22;9572;52.378;13.404;2023-10-08T02:44:36;12.00;99.90
18880;DHT22;9572;52.378;13.404;2023-10-08T02:47:09;11.90;99.90
18880;DHT22;9572;52.378;13.404;2023-10-08T02:49:47;11.90;99.90
18880;DHT22;9572;52.378;13.404;2023-10-08T02:52:26;11.80;99.90
18880;DHT22;9572;52.378;13.404;2023-10-08T02:54:55;11.90;99.90
18880;DHT22;9572;52.378;13.404;2023-10-08T02:57:36;11.80;99.90
18880;DHT22;9572;52.378;13.404;2023-10-08T03:00:04;11.80;99.90
18880;DHT22;9572;52.378;13.404;2023-10-08T03:02:40;11.90;99.90
18880;DHT22;9572;52.378;13.404;2023-10-08T03:05:14;11.90;99.90
18880;DHT22;9572;52.378;13.404;2023-10-08T03:08:23;11.90;99.90
18880;DHT22;9572;52.378;13.404;2023-10-08T03:10:56;11.80;99.90
18880;DHT22;9572;52.378;13.404;2023-10-08T03:13:59;11.80;99.90
18880;DHT22;9572;52.378;13.404;2023-10-08T03:17:10;11.80;99.90
18880;DHT22;9572;52.378;13.404;2023-10-08T03:19:34;11.70;99.90
18880;DHT22;9572;52.378;13.404;2023-10-08T03:22:05;11.70;99.90
18880;DHT22;9572;52.378;13.404;2023-10-08T03:24:32;11.80;99.90
18880;DHT22;9572;52.378;13.404;2023-10-08T03:27:14;11.80;99.90
18880;DHT22;9572;52.378;13.404;2023-10-08T03:30:10;11.90;99.90
18880;DHT22;9572;52.378;13.404;2023-10-08T03:32:40;11.90;99.90
18880;DHT22;9572;52.378;13.404;2023-10-08T03:35:11;11.90;99.90
18880;DHT22;9572;52.378;13.404;2023-10-08T03:37:45;11.90;99.90
18880;DHT22;9572;52.378;13.404;2023-10-08T03:40:16;11.80;99.90
18880;DHT22;9572;52.378;13.404;2023-10-08T03:43:07;11.80;99.90
18880;DHT22;9572;52.378;13.404;2023-10-08T03:45:45;11.80;99.90
18880;DHT22;9572;52.378;13.404;2023-10-08T03:48:17;11.80;99.90
18880;DHT22;9572;52.378;13.404;2023-10-08T03:50:49;11.80;99.90
18880;DHT22;9572;52.378;13.404;2023-10-08T03:53:22;11.80;99.90
18880;DHT22;9572;52.378;13.404;2023-10-08T03:55:51;11.70;99.90
18880;DHT22;9572;52.378;13.404;2023-10-08T03:58:21;11.70;99.90
18880;DHT22;9572;52.378;13.404;2023-10-08T04:00:55;11.70;99.90
18880;DHT22;9572;52.378;13.404;2023-10-08T04:03:37;11.80;99.90
18880;DHT22;9572;52.378;13.404;2023-10-08T04:06:26;11.80;99.90
18880;DHT22;9572;52.378;13.404;2023-10-08T04:09:06;11.70;99.90
18880;DHT22;9572;52.378;13.404;2023-10-08T04:11:44;11.70;99.90
18880;DHT22;9572;52.378;13.404;2023-10-08T04:14:24;11.70;99.90
18880;DHT22;9572;52.378;13.404;2023-10-08T04:16:55;11.70;99.90
18880;DHT22;9572;52.378;13.404;2023-10-08T04:19:26;11.70;99.90
18880;DHT22;9572;52.378;13.404;2023-10-08T04:21:55;11.70;99.90
18880;DHT22;9572;52.378;13.404;2023-10-08T04:24:24;11.60;99.90
18880;DHT22;9572;52.378;13.404;2023-10-08T04:27:00;11.60;99.90
18880;DHT22;9572;52.378;13.404;2023-10-08T04:29:28;11.60;99.90
18880;DHT22;9572;52.378;13.404;2023-10-08T04:31:58;11.70;99.90
18880;DHT22;9572;52.378;13.404;2023-10-08T04:34:33;11.60;99.90
18880;DHT22;9572;52.378;13.404;2023-10-08T04:37:02;11.60;99.90
18880;DHT22;9572;52.378;13.404;2023-10-08T04:39:38;11.70;99.90
18880;DHT22;9572;52.378;13.404;2023-10-08T04:42:06;11.60;99.90
18880;DHT22;9572;52.378;13.404;2023-10-08T04:44:36;11.70;99.90
18880;DHT22;9572;52.378;13.404;2023-10-08T04:47:06;11.70;99.90
18880;DHT22;9572;52.378;13.404;2023-10-08T04:49:34;11.70;99.90
18880;DHT22;9572;52.378;13.404;2023-10-08T04:52:12;11.70;99.90
18880;DHT22;9572;52.378;13.404;2023-10-08T04:54:41;11.70;99.90
18880;DHT22;9572;52.378;13.404;2023-10-08T04:57:17;11.60;99.90
18880;DHT22;9572;52.378;13.404;2023-10-08T04:59:48;11.70;99.90
18880;DHT22;9572;52.378;13.404;2023-10-08T05:02:16;11.60;99.90
18880;DHT22;9572;52.378;13.404;2023-10-08T05:04:55;11.60;99.90
18880;DHT22;9572;52.378;13.404;2023-10-08T05:07:49;11.60;99.90
18880;DHT22;9572;52.378;13.404;2023-10-08T05:10:43;11.60;99.90
18880;DHT22;9572;52.378;13.404;2023-10-08T05:13:23;11.50;99.90
18880;DHT22;9572;52.378;13.404;2023-10-08T05:15:58;11.50;99.90
18880;DHT22;9572;52.378;13.404;2023-10-08T05:18:55;11.50;99.90
18880;DHT22;9572;52.378;13.404;2023-10-08T05:21:40;11.40;99.90
18880;DHT22;9572;52.378;13.404;2023-10-08T05:24:28;11.40;99.90
18880;DHT22;9572;52.378;13.404;2023-10-08T05:27:04;11.40;99.90
18880;DHT22;9572;52.378;13.404;2023-10-08T05:30:03;11.40;99.90
18880;DHT22;9572;52.378;13.404;2023-10-08T05:32:41;11.40;99.90
18880;DHT22;9572;52.378;13.404;2023-10-08T05:35:31;11.30;99.90
18880;DHT22;9572;52.378;13.404;2023-10-08T05:38:15;11.30;99.90
18880;DHT22;9572;52.378;13.404;2023-10-08T05:40:50;11.40;99.90
18880;DHT22;9572;52.378;13.404;2023-10-08T05:43:42;11.30;99.90
18880;DHT22;9572;52.378;13.404;2023-10-08T05:46:21;11.30;99.90
18880;DHT22;9572;52.378;13.404;2023-10-08T05:49:12;11.20;99.90
18880;DHT22;9572;52.378;13.404;2023-10-08T05:52:04;11.20;99.90
18880;DHT22;9572;52.378;13.404;2023-10-08T05:54:45;11.20;99.90
18880;DHT22;9572;52.378;13.404;2023-10-08T05:57:39;11.20;99.90
18880;DHT22;9572;52.378;13.404;2023-10-08T06:00:07;11.20;99.90
18880;DHT22;9572;52.378;13.404;2023-10-08T06:02:51;11.20;99.90
18880;DHT22;9572;52.378;13.404;2023-10-08T06:05:36;11.30;99.90
18880;DHT22;9572;52.378;13.404;2023-10-08T06:08:30;11.40;99.90
18880;DHT22;9572;52.378;13.404;2023-10-08T06:11:15;11.40;99.90
18880;DHT22;9572;52.378;13.404;2023-10-08T06:13:58;11.40;99.90
18880;DHT22;9572;52.378;13.404;2023-10-08T06:16:27;11.50;99.90
18880;DHT22;9572;52.378;13.404;2023-10-08T06:19:14;11.60;99.90
18880;DHT22;9572;52.378;13.404;2023-10-08T06:21:43;11.60;99.90
18880;DHT22;9572;52.378;13.404;2023-10-08T06:24:14;11.70;99.90
18880;DHT22;9572;52.378;13.404;2023-10-08T06:26:43;11.70;99.90
18880;DHT22;9572;52.378;13.404;2023-10-08T06:29:19;11.60;99.90
18880;DHT22;9572;52.378;13.404;2023-10-08T06:31:53;11.70;99.90
18880;DHT22;9572;52.378;13.404;2023-10-08T06:34:28;11.70;99.90
18880;DHT22;9572;52.378;13.404;2023-10-08T06:36:58;11.80;99.90
18880;DHT22;9572;52.378;13.404;2023-10-08T06:39:25;11.80;99.90
18880;DHT22;9572;52.378;13.404;2023-10-08T06:41:59;11.90;99.90
18880;DHT22;9572;52.378;13.404;2023-10-08T06:44:28;11.90;99.90
18880;DHT22;9572;52.378;13.404;2023-10-08T06:46:56;11.90;99.90
18880;DHT22;9572;52.378;13.404;2023-10-08T06:49:24;12.00;99.90
18880;DHT22;9572;52.378;13.404;2023-10-08T06:51:56;12.00;99.90
18880;DHT22;9572;52.378;13.404;2023-10-08T06:54:23;11.90;99.90
18880;DHT22;9572;52.378;13.404;2023-10-08T06:56:56;11.90;99.90
18880;DHT22;9572;52.378;13.404;2023-10-08T06:59:23;12.00;99.90
18880;DHT22;9572;52.378;13.404;2023-10-08T07:01:58;12.00;99.90
18880;DHT22;9572;52.378;13.404;2023-10-08T07:04:25;12.00;99.90
18880;DHT22;9572;52.378;13.404;2023-10-08T07:06:54;11.90;99.90
18880;DHT22;9572;52.378;13.404;2023-10-08T07:09:21;11.90;99.90
18880;DHT22;9572;52.378;13.404;2023-10-08T07:11:56;11.70;99.90
18880;DHT22;9572;52.378;13.404;2023-10-08T07:14:24;11.80;99.90
18880;DHT22;9572;52.378;13.404;2023-10-08T07:16:53;11.70;99.90
18880;DHT22;9572;52.378;13.404;2023-10-08T07:19:30;11.70;99.90
18880;DHT22;9572;52.378;13.404;2023-10-08T07:22:04;11.60;99.90
18880;DHT22;9572;52.378;13.404;2023-10-08T07:24:43;11.60;99.90
18880;DHT22;9572;52.378;13.404;2023-10-08T07:27:16;11.60;99.90
18880;DHT22;9572;52.378;13.404;2023-10-08T07:29:47;11.50;99.90
18880;DHT22;9572;52.378;13.404;2023-10-08T07:32:14;11.40;99.90
18880;DHT22;9572;52.378;13.404;2023-10-08T07:34:49;11.40;99.90
18880;DHT22;9572;52.378;13.404;2023-10-08T07:37:23;11.40;99.90
18880;DHT22;9572;52.378;13.404;2023-10-08T07:39:53;11.40;99.90
18880;DHT22;9572;52.378;13.404;2023-10-08T07:42:24;11.40;99.90
18880;DHT22;9572;52.378;13.404;2023-10-08T07:44:53;11.40;99.90
18880;DHT22;9572;52.378;13.404;2023-10-08T07:47:24;11.40;99.90
18880;DHT22;9572;52.378;13.404;2023-10-08T07:49:59;11.40;99.90
18880;DHT22;9572;52.378;13.404;2023-10-08T07:52:26;11.50;99.90
18880;DHT22;9572;52.378;13.404;2023-10-08T07:54:55;11.50;99.90
18880;DHT22;9572;52.378;13.404;2023-10-08T07:57:24;11.60;99.90
18880;DHT22;9572;52.378;13.404;2023-10-08T07:59:53;11.60;99.90
18880;DHT22;9572;52.378;13.404;2023-10-08T08:02:43;11.60;99.90
18880;DHT22;9572;52.378;13.404;2023-10-08T08:05:18;11.50;99.90
18880;DHT22;9572;52.378;13.404;2023-10-08T08:07:46;11.60;99.90
18880;DHT22;9572;52.378;13.404;2023-10-08T08:10:15;11.50;99.90
18880;DHT22;9572;52.378;13.404;2023-10-08T08:12:44;11.60;99.90
18880;DHT22;9572;52.378;13.404;2023-10-08T08:15:17;11.50;99.90
18880;DHT22;9572;52.378;13.404;2023-10-08T08:17:44;11.60;99.90
18880;DHT22;9572;52.378;13.404;2023-10-08T08:20:14;11.60;99.90
18880;DHT22;9572;52.378;13.404;2023-10-08T08:22:46;11.60;99.90
18880;DHT22;9572;52.378;13.404;2023-10-08T08:25:19;11.60;99.90
18880;DHT22;9572;52.378;13.404;2023-10-08T08:27:59;11.70;99.90
18880;DHT22;9572;52.378;13.404;2023-10-08T08:30:26;11.60;99.90
18880;DHT22;9572;52.378;13.404;2023-10-08T08:32:53;11.70;99.90
18880;DHT22;9572;52.378;13.404;2023-10-08T08:35:26;11.60;99.90
18880;DHT22;9572;52.378;13.404;2023-10-08T08:37:58;11.60;99.90
18880;DHT22;9572;52.378;13.404;2023-10-08T08:40:25;11.70;99.90
18880;DHT22;9572;52.378;13.404;2023-10-08T08:42:53;11.70;99.90
18880;DHT22;9572;52.378;13.404;2023-10-08T08:45:28;11.80;99.90
18880;DHT22;9572;52.378;13.404;2023-10-08T08:47:59;11.80;99.90
18880;DHT22;9572;52.378;13.404;2023-10-08T08:50:26;11.90;99.90
18880;DHT22;9572;52.378;13.404;2023-10-08T08:52:58;12.00;99.90
18880;DHT22;9572;52.378;13.404;2023-10-08T08:55:25;12.00;99.90
18880;DHT22;9572;52.378;13.404;2023-10-08T08:57:54;12.10;99.90
18880;DHT22;9572;52.378;13.404;2023-10-08T09:00:24;12.00;99.90
18880;DHT22;9572;52.378;13.404;2023-10-08T09:02:54;11.90;99.90
18880;DHT22;9572;52.378;13.404;2023-10-08T09:05:21;12.00;99.90
18880;DHT22;9572;52.378;13.404;2023-10-08T09:08:03;12.10;99.90
18880;DHT22;9572;52.378;13.404;2023-10-08T09:10:36;12.20;99.90
18880;DHT22;9572;52.378;13.404;2023-10-08T09:13:04;12.20;99.90
18880;DHT22;9572;52.378;13.404;2023-10-08T09:15:35;12.30;99.90
18880;DHT22;9572;52.378;13.404;2023-10-08T09:18:03;12.20;99.90
18880;DHT22;9572;52.378;13.404;2023-10-08T09:20:37;12.30;99.90
18880;DHT22;9572;52.378;13.404;2023-10-08T09:23:11;12.30;99.90
18880;DHT22;9572;52.378;13.404;2023-10-08T09:25:39;12.40;99.90
18880;DHT22;9572;52.378;13.404;2023-10-08T09:28:06;12.50;99.90
18880;DHT22;9572;52.378;13.404;2023-10-08T09:30:34;12.50;99.90
18880;DHT22;9572;52.378;13.404;2023-10-08T09:33:05;12.60;99.90
18880;DHT22;9572;52.378;13.404;2023-10-08T09:35:34;12.50;99.90
18880;DHT22;9572;52.378;13.404;2023-10-08T09:38:05;12.40;99.90
18880;DHT22;9572;52.378;13.404;2023-10-08T09:40:40;12.50;99.90
18880;DHT22;9572;52.378;13.404;2023-10-08T09:43:18;12.50;99.90
18880;DHT22;9572;52.378;13.404;2023-10-08T09:45:49;12.60;99.90
18880;DHT22;9572;52.378;13.404;2023-10-08T09:48:20;12.80;99.90
18880;DHT22;9572;52.378;13.404;2023-10-08T09:50:52;12.80;99.90
18880;DHT22;9572;52.378;13.404;2023-10-08T09:53:30;12.80;99.90
18880;DHT22;9572;52.378;13.404;2023-10-08T09:56:13;12.80;99.90
18880;DHT22;9572;52.378;13.404;2023-10-08T09:58:41;12.90;99.90
18880;DHT22;9572;52.378;13.404;2023-10-08T10:01:15;12.90;99.90
18880;DHT22;9572;52.378;13.404;2023-10-08T10:03:44;12.90;99.90
18880;DHT22;9572;52.378;13.404;2023-10-08T10:06:15;13.00;99.90
18880;DHT22;9572;52.378;13.404;2023-10-08T10:08:45;13.10;99.90
18880;DHT22;9572;52.378;13.404;2023-10-08T10:11:17;13.10;99.90
18880;DHT22;9572;52.378;13.404;2023-10-08T10:13:45;13.20;99.90
18880;DHT22;9572;52.378;13.404;2023-10-08T10:16:18;13.10;99.90
18880;DHT22;9572;52.378;13.404;2023-10-08T10:18:49;13.10;99.90
18880;DHT22;9572;52.378;13.404;2023-10-08T10:21:27;13.20;99.90
18880;DHT22;9572;52.378;13.404;2023-10-08T10:23:55;13.20;99.90
18880;DHT22;9572;52.378;13.404;2023-10-08T10:26:28;13.30;99.90
18880;DHT22;9572;52.378;13.404;2023-10-08T10:29:18;13.20;99.90
18880;DHT22;9572;52.378;13.404;2023-10-08T10:31:46;13.20;99.90
18880;DHT22;9572;52.378;13.404;2023-10-08T10:34:16;13.20;99.90
18880;DHT22;9572;52.378;13.404;2023-10-08T10:36:44;13.30;99.90
18880;DHT22;9572;52.378;13.404;2023-10-08T10:39:15;13.40;99.90
18880;DHT22;9572;52.378;13.404;2023-10-08T10:41:46;13.40;99.90
18880;DHT22;9572;52.378;13.404;2023-10-08T10:44:14;13.50;99.90
18880;DHT22;9572;52.378;13.404;2023-10-08T10:46:41;13.60;99.90
18880;DHT22;9572;52.378;13.404;2023-10-08T10:49:09;13.60;99.90
18880;DHT22;9572;52.378;13.404;2023-10-08T10:51:48;13.50;99.90
18880;DHT22;9572;52.378;13.404;2023-10-08T10:54:18;13.50;99.90
18880;DHT22;9572;52.378;13.404;2023-10-08T10:56:51;13.40;99.90
18880;DHT22;9572;52.378;13.404;2023-10-08T10:59:29;13.30;99.90
18880;DHT22;9572;52.378;13.404;2023-10-08T11:02:02;13.30;99.90
18880;DHT22;9572;52.378;13.404;2023-10-08T11:04:34;13.30;99.90
18880;DHT22;9572;52.378;13.404;2023-10-08T11:07:13;13.30;99.90
18880;DHT22;9572;52.378;13.404;2023-10-08T11:09:42;13.30;99.90
18880;DHT22;9572;52.378;13.404;2023-10-08T11:12:13;13.50;99.90
18880;DHT22;9572;52.378;13.404;2023-10-08T11:14:46;13.60;99.90
18880;DHT22;9572;52.378;13.404;2023-10-08T11:17:15;13.60;99.90
18880;DHT22;9572;52.378;13.404;2023-10-08T11:19:42;13.80;99.90
18880;DHT22;9572;52.378;13.404;2023-10-08T11:22:11;13.80;99.90
18880;DHT22;9572;52.378;13.404;2023-10-08T11:24:42;13.90;99.90
18880;DHT22;9572;52.378;13.404;2023-10-08T11:27:17;13.80;99.90
18880;DHT22;9572;52.378;13.404;2023-10-08T11:29:55;13.60;99.90
18880;DHT22;9572;52.378;13.404;2023-10-08T11:32:24;13.50;99.90
18880;DHT22;9572;52.378;13.404;2023-10-08T11:34:55;13.50;99.90
18880;DHT22;9572;52.378;13.404;2023-10-08T11:37:27;13.60;99.90
18880;DHT22;9572;52.378;13.404;2023-10-08T11:39:54;13.70;99.90
18880;DHT22;9572;52.378;13.404;2023-10-08T11:42:25;13.70;99.90
18880;DHT22;9572;52.378;13.404;2023-10-08T11:45:09;13.70;99.90
18880;DHT22;9572;52.378;13.404;2023-10-08T11:47:50;13.70;99.90
18880;DHT22;9572;52.378;13.404;2023-10-08T11:50:23;13.80;99.90
18880;DHT22;9572;52.378;13.404;2023-10-08T11:52:57;13.90;99.90
18880;DHT22;9572;52.378;13.404;2023-10-08T11:55:27;14.10;99.90
18880;DHT22;9572;52.378;13.404;2023-10-08T11:57:55;14.10;99.90
18880;DHT22;9572;52.378;13.404;2023-10-08T12:00:24;14.20;99.90
18880;DHT22;9572;52.378;13.404;2023-10-08T12:02:52;14.10;99.90
18880;DHT22;9572;52.378;13.404;2023-10-08T12:05:21;14.20;99.90
18880;DHT22;9572;52.378;13.404;2023-10-08T12:07:50;14.40;99.90
18880;DHT22;9572;52.378;13.404;2023-10-08T12:10:17;14.40;99.90
18880;DHT22;9572;52.378;13.404;2023-10-08T12:12:49;14.40;99.90
18880;DHT22;9572;52.378;13.404;2023-10-08T12:15:19;14.40;99.90
18880;DHT22;9572;52.378;13.404;2023-10-08T12:17:47;14.40;99.90
18880;DHT22;9572;52.378;13.404;2023-10-08T12:20:35;14.40;99.90
18880;DHT22;9572;52.378;13.404;2023-10-08T12:23:04;14.40;99.90
18880;DHT22;9572;52.378;13.404;2023-10-08T12:25:31;14.40;99.90
18880;DHT22;9572;52.378;13.404;2023-10-08T12:28:00;14.50;99.90
18880;DHT22;9572;52.378;13.404;2023-10-08T12:30:31;14.50;99.90
18880;DHT22;9572;52.378;13.404;2023-10-08T12:33:00;14.40;99.90
18880;DHT22;9572;52.378;13.404;2023-10-08T12:35:27;14.50;99.90
18880;DHT22;9572;52.378;13.404;2023-10-08T12:37:55;14.50;99.90
18880;DHT22;9572;52.378;13.404;2023-10-08T12:40:22;14.50;99.90
18880;DHT22;9572;52.378;13.404;2023-10-08T12:42:50;14.50;99.90
18880;DHT22;9572;52.378;13.404;2023-10-08T12:45:18;14.30;99.90
18880;DHT22;9572;52.378;13.404;2023-10-08T12:47:49;14.10;99.90
18880;DHT22;9572;52.378;13.404;2023-10-08T12:50:17;14.10;99.90
18880;DHT22;9572;52.378;13.404;2023-10-08T12:52:55;14.20;99.90
18880;DHT22;9572;52.378;13.404;2023-10-08T12:55:22;14.30;99.90
18880;DHT22;9572;52.378;13.404;2023-10-08T12:57:51;14.30;99.90
18880;DHT22;9572;52.378;13.404;2023-10-08T13:00:22;14.40;99.90
18880;DHT22;9572;52.378;13.404;2023-10-08T13:02:58;14.50;99.90
18880;DHT22;9572;52.378;13.404;2023-10-08T13:05:31;14.50;99.90
18880;DHT22;9572;52.378;13.404;2023-10-08T13:07:59;14.60;99.90
18880;DHT22;9572;52.378;13.404;2023-10-08T13:10:34;14.60;99.90
18880;DHT22;9572;52.378;13.404;2023-10-08T13:13:06;14.60;99.90
18880;DHT22;9572;52.378;13.404;2023-10-08T13:15:33;14.60;99.90
18880;DHT22;9572;52.378;13.404;2023-10-08T13:18:02;14.70;99.90
18880;DHT22;9572;52.378;13.404;2023-10-08T13:20:30;14.80;99.90
18880;DHT22;9572;52.378;13.404;2023-10-08T13:22:58;14.90;99.90
18880;DHT22;9572;52.378;13.404;2023-10-08T13:25:25;15.00;99.90
18880;DHT22;9572;52.378;13.404;2023-10-08T13:27:52;15.10;99.90
18880;DHT22;9572;52.378;13.404;2023-10-08T13:30:20;15.00;99.90
18880;DHT22;9572;52.378;13.404;2023-10-08T13:32:49;14.90;99.90
18880;DHT22;9572;52.378;13.404;2023-10-08T13:35:18;14.80;99.90
18880;DHT22;9572;52.378;13.404;2023-10-08T13:37:45;14.80;99.90
18880;DHT22;9572;52.378;13.404;2023-10-08T13:40:13;14.70;99.90
18880;DHT22;9572;52.378;13.404;2023-10-08T13:42:41;14.70;99.90
18880;DHT22;9572;52.378;13.404;2023-10-08T13:45:09;14.80;99.90
18880;DHT22;9572;52.378;13.404;2023-10-08T13:47:42;14.70;99.90
18880;DHT22;9572;52.378;13.404;2023-10-08T13:50:09;14.60;99.90
18880;DHT22;9572;52.378;13.404;2023-10-08T13:52:39;14.50;99.90
18880;DHT22;9572;52.378;13.404;2023-10-08T13:55:07;14.50;99.90
18880;DHT22;9572;52.378;13.404;2023-10-08T13:57:39;14.60;99.90
18880;DHT22;9572;52.378;13.404;2023-10-08T14:00:08;14.70;99.90
18880;DHT22;9572;52.378;13.404;2023-10-08T14:02:41;14.70;99.90
18880;DHT22;9572;52.378;13.404;2023-10-08T14:05:10;14.70;99.90
18880;DHT22;9572;52.378;13.404;2023-10-08T14:07:42;14.50;99.90
18880;DHT22;9572;52.378;13.404;2023-10-08T14:10:11;14.60;99.90
18880;DHT22;9572;52.378;13.404;2023-10-08T14:12:45;14.80;99.90
18880;DHT22;9572;52.378;13.404;2023-10-08T14:15:15;14.80;99.90
18880;DHT22;9572;52.378;13.404;2023-10-08T14:17:43;14.80;99.90
18880;DHT22;9572;52.378;13.404;2023-10-08T14:20:14;14.70;99.90
18880;DHT22;9572;52.378;13.404;2023-10-08T14:22:48;14.70;99.90
18880;DHT22;9572;52.378;13.404;2023-10-08T14:25:25;14.70;99.90
18880;DHT22;9572;52.378;13.404;2023-10-08T14:27:53;14.70;99.90
18880;DHT22;9572;52.378;13.404;2023-10-08T14:30:30;14.60;99.90
18880;DHT22;9572;52.378;13.404;2023-10-08T14:32:58;14.60;99.90
18880;DHT22;9572;52.378;13.404;2023-10-08T14:35:26;14.50;99.90
18880;DHT22;9572;52.378;13.404;2023-10-08T14:38:12;14.40;99.90
18880;DHT22;9572;52.378;13.404;2023-10-08T14:41:11;14.50;99.90
18880;DHT22;9572;52.378;13.404;2023-10-08T14:44:16;14.40;99.90
18880;DHT22;9572;52.378;13.404;2023-10-08T14:46:43;14.50;99.90
18880;DHT22;9572;52.378;13.404;2023-10-08T14:49:13;14.50;99.90
18880;DHT22;9572;52.378;13.404;2023-10-08T14:51:40;14.50;99.90
18880;DHT22;9572;52.378;13.404;2023-10-08T14:54:09;14.40;99.90
18880;DHT22;9572;52.378;13.404;2023-10-08T14:56:37;14.40;99.90
18880;DHT22;9572;52.378;13.404;2023-10-08T14:59:05;14.40;99.90
18880;DHT22;9572;52.378;13.404;2023-10-08T15:01:32;14.40;99.90
18880;DHT22;9572;52.378;13.404;2023-10-08T15:04:00;14.30;99.90
18880;DHT22;9572;52.378;13.404;2023-10-08T15:06:30;14.40;99.90
18880;DHT22;9572;52.378;13.404;2023-10-08T15:08:57;14.40;99.90
18880;DHT22;9572;52.378;13.404;2023-10-08T15:11:26;14.40;99.90
18880;DHT22;9572;52.378;13.404;2023-10-08T15:13:56;14.20;99.90
18880;DHT22;9572;52.378;13.404;2023-10-08T15:16:23;14.10;99.90
18880;DHT22;9572;52.378;13.404;2023-10-08T15:18:52;14.10;99.90
18880;DHT22;9572;52.378;13.404;2023-10-08T15:21:19;14.00;99.90
18880;DHT22;9572;52.378;13.404;2023-10-08T15:23:46;13.90;99.90
18880;DHT22;9572;52.378;13.404;2023-10-08T15:26:13;14.00;99.90
18880;DHT22;9572;52.378;13.404;2023-10-08T15:28:43;13.90;99.90
18880;DHT22;9572;52.378;13.404;2023-10-08T15:31:11;13.80;99.90
18880;DHT22;9572;52.378;13.404;2023-10-08T15:33:38;13.70;99.90
18880;DHT22;9572;52.378;13.404;2023-10-08T15:36:05;13.70;99.90
18880;DHT22;9572;52.378;13.404;2023-10-08T15:38:32;13.60;99.90
18880;DHT22;9572;52.378;13.404;2023-10-08T15:40:59;13.60;99.90
18880;DHT22;9572;52.378;13.404;2023-10-08T15:43:26;13.60;99.90
18880;DHT22;9572;52.378;13.404;2023-10-08T15:45:55;13.50;99.90
18880;DHT22;9572;52.378;13.404;2023-10-08T15:48:21;13.50;99.90
18880;DHT22;9572;52.378;13.404;2023-10-08T15:50:50;13.40;99.90
18880;DHT22;9572;52.378;13.404;2023-10-08T15:53:17;13.40;99.90
18880;DHT22;9572;52.378;13.404;2023-10-08T15:55:44;13.40;99.90
18880;DHT22;9572;52.378;13.404;2023-10-08T15:58:12;13.30;99.90
18880;DHT22;9572;52.378;13.404;2023-10-08T16:00:39;13.30;99.90
18880;DHT22;9572;52.378;13.404;2023-10-08T16:03:07;13.20;99.90
18880;DHT22;9572;52.378;13.404;2023-10-08T16:05:35;13.20;99.90
18880;DHT22;9572;52.378;13.404;2023-10-08T16:08:02;13.10;99.90
18880;DHT22;9572;52.378;13.404;2023-10-08T16:10:29;13.10;99.90
18880;DHT22;9572;52.378;13.404;2023-10-08T16:12:56;13.10;99.90
18880;DHT22;9572;52.378;13.404;2023-10-08T16:15:23;13.00;99.90
18880;DHT22;9572;52.378;13.404;2023-10-08T16:17:50;13.00;99.90
18880;DHT22;9572;52.378;13.404;2023-10-08T16:20:19;12.90;99.90
18880;DHT22;9572;52.378;13.404;2023-10-08T16:22:46;12.90;99.90
18880;DHT22;9572;52.378;13.404;2023-10-08T16:27:50;12.80;99.90
18880;DHT22;9572;52.378;13.404;2023-10-08T16:30:19;12.80;99.90
18880;DHT22;9572;52.378;13.404;2023-10-08T16:32:49;12.70;99.90
18880;DHT22;9572;52.378;13.404;2023-10-08T16:35:18;12.60;99.90
18880;DHT22;9572;52.378;13.404;2023-10-08T16:37:46;12.60;99.90
18880;DHT22;9572;52.378;13.404;2023-10-08T16:40:13;12.60;99.90